sensor_id;sensor_type;location;lat;lon;timestamp;P1;P2;P0
73825;PMS5003;64145;55.060;73.168;2023-04-03T00:01:44;9.00;6.00;4.00
73825;PMS5003;64145;55.060;73.168;2023-04-03T00:04:19;12.00;9.00;5.50
73825;PMS5003;64145;55.060;73.168;2023-04-03T00:06:50;11.00;6.00;4.00
73825;PMS5003;64145;55.060;73.168;2023-04-03T00:09:16;9.50;8.50;4.00
73825;PMS5003;64145;55.060;73.168;2023-04-03T00:12:00;12.00;11.00;5.00
73825;PMS5003;64145;55.060;73.168;2023-04-03T00:14:26;13.00;12.67;6.00
73825;PMS5003;64145;55.060;73.168;2023-04-03T00:16:52;15.75;14.25;6.25
73825;PMS5003;64145;55.060;73.168;2023-04-03T00:19:18;17.00;16.33;7.00
73825;PMS5003;64145;55.060;73.168;2023-04-03T00:21:43;16.00;15.00;6.67
73825;PMS5003;64145;55.060;73.168;2023-04-03T00:24:09;13.33;13.33;6.00
73825;PMS5003;64145;55.060;73.168;2023-04-03T00:26:34;13.00;13.00;5.00
73825;PMS5003;64145;55.060;73.168;2023-04-03T00:29:00;12.33;10.00;4.33
73825;PMS5003;64145;55.060;73.168;2023-04-03T00:31:25;13.00;7.00;4.00
73825;PMS5003;64145;55.060;73.168;2023-04-03T00:33:51;10.00;7.33;4.00
73825;PMS5003;64145;55.060;73.168;2023-04-03T00:36:16;14.00;13.00;6.00
73825;PMS5003;64145;55.060;73.168;2023-04-03T00:38:42;17.00;17.00;7.00
73825;PMS5003;64145;55.060;73.168;2023-04-03T00:41:07;16.33;15.00;6.00
73825;PMS5003;64145;55.060;73.168;2023-04-03T00:43:38;16.00;14.50;7.00
73825;PMS5003;64145;55.060;73.168;2023-04-03T00:46:13;16.00;13.00;6.00
73825;PMS5003;64145;55.060;73.168;2023-04-03T00:48:40;24.75;21.00;11.75
73825;PMS5003;64145;55.060;73.168;2023-04-03T00:51:20;36.25;26.75;16.00
73825;PMS5003;64145;55.060;73.168;2023-04-03T00:53:49;39.00;30.00;18.00
73825;PMS5003;64145;55.060;73.168;2023-04-03T00:56:38;39.75;32.50;21.00
73825;PMS5003;64145;55.060;73.168;2023-04-03T00:59:06;37.00;30.33;19.33
73825;PMS5003;64145;55.060;73.168;2023-04-03T01:01:39;34.00;27.00;18.00
73825;PMS5003;64145;55.060;73.168;2023-04-03T01:07:06;30.50;26.50;16.75
73825;PMS5003;64145;55.060;73.168;2023-04-03T01:12:27;25.00;23.00;15.25
73825;PMS5003;64145;55.060;73.168;2023-04-03T01:14:54;21.00;20.75;14.00
73825;PMS5003;64145;55.060;73.168;2023-04-03T01:17:30;24.50;23.00;15.00
73825;PMS5003;64145;55.060;73.168;2023-04-03T01:22:56;20.50;20.00;14.00
73825;PMS5003;64145;55.060;73.168;2023-04-03T01:25:33;19.00;18.00;12.00
73825;PMS5003;64145;55.060;73.168;2023-04-03T01:27:59;18.50;17.00;11.50
73825;PMS5003;64145;55.060;73.168;2023-04-03T01:30:26;26.67;23.67;16.00
73825;PMS5003;64145;55.060;73.168;2023-04-03T01:32:55;26.50;24.00;16.00
73825;PMS5003;64145;55.060;73.168;2023-04-03T01:35:20;22.33;21.00;16.00
73825;PMS5003;64145;55.060;73.168;2023-04-03T01:37:46;24.00;22.00;16.00
73825;PMS5003;64145;55.060;73.168;2023-04-03T01:40:12;27.33;25.00;17.00
73825;PMS5003;64145;55.060;73.168;2023-04-03T01:42:37;27.33;24.33;16.00
73825;PMS5003;64145;55.060;73.168;2023-04-03T01:45:03;22.00;22.00;14.00
73825;PMS5003;64145;55.060;73.168;2023-04-03T01:47:28;21.00;19.33;13.00
73825;PMS5003;64145;55.060;73.168;2023-04-03T01:49:54;19.00;19.00;10.00
73825;PMS5003;64145;55.060;73.168;2023-04-03T01:52:20;17.00;16.33;8.00
73825;PMS5003;64145;55.060;73.168;2023-04-03T01:54:45;16.33;16.00;7.00
73825;PMS5003;64145;55.060;73.168;2023-04-03T01:57:29;17.00;16.00;7.00
73825;PMS5003;64145;55.060;73.168;2023-04-03T01:59:55;15.00;14.00;5.00
73825;PMS5003;64145;55.060;73.168;2023-04-03T02:02:21;13.67;12.00;5.00
73825;PMS5003;64145;55.060;73.168;2023-04-03T02:04:46;11.00;8.33;4.00
73825;PMS5003;64145;55.060;73.168;2023-04-03T02:07:12;11.00;9.00;4.00
73825;PMS5003;64145;55.060;73.168;2023-04-03T02:09:41;8.00;7.50;3.75
73825;PMS5003;64145;55.060;73.168;2023-04-03T02:12:07;11.33;11.00;5.33
73825;PMS5003;64145;55.060;73.168;2023-04-03T02:14:33;20.00;18.33;10.00
73825;PMS5003;64145;55.060;73.168;2023-04-03T02:17:08;22.75;21.00;10.50
73825;PMS5003;64145;55.060;73.168;2023-04-03T02:19:34;16.33;14.00;6.00
73825;PMS5003;64145;55.060;73.168;2023-04-03T02:22:01;14.75;14.00;4.00
73825;PMS5003;64145;55.060;73.168;2023-04-03T02:24:27;15.00;13.25;4.50
73825;PMS5003;64145;55.060;73.168;2023-04-03T02:27:02;15.00;14.00;6.00
73825;PMS5003;64145;55.060;73.168;2023-04-03T02:29:37;15.00;14.50;7.00
73825;PMS5003;64145;55.060;73.168;2023-04-03T02:32:08;15.00;14.00;6.00
73825;PMS5003;64145;55.060;73.168;2023-04-03T02:34:34;15.00;13.00;5.00
73825;PMS5003;64145;55.060;73.168;2023-04-03T02:36:59;15.33;15.00;7.00
73825;PMS5003;64145;55.060;73.168;2023-04-03T02:42:19;13.25;11.75;4.00
73825;PMS5003;64145;55.060;73.168;2023-04-03T02:44:45;14.00;11.00;5.00
73825;PMS5003;64145;55.060;73.168;2023-04-03T02:47:10;11.33;10.33;5.33
73825;PMS5003;64145;55.060;73.168;2023-04-03T02:49:46;12.00;12.00;6.00
73825;PMS5003;64145;55.060;73.168;2023-04-03T02:52:12;12.00;10.00;5.00
73825;PMS5003;64145;55.060;73.168;2023-04-03T02:54:42;7.00;5.00;2.00
73825;PMS5003;64145;55.060;73.168;2023-04-03T02:57:08;6.33;6.00;3.00
73825;PMS5003;64145;55.060;73.168;2023-04-03T03:02:30;6.25;6.00;2.00
73825;PMS5003;64145;55.060;73.168;2023-04-03T03:04:56;6.00;5.33;2.00
73825;PMS5003;64145;55.060;73.168;2023-04-03T03:07:21;3.00;3.00;1.00
73825;PMS5003;64145;55.060;73.168;2023-04-03T03:12:41;4.00;3.00;1.75
73825;PMS5003;64145;55.060;73.168;2023-04-03T03:15:07;4.00;3.75;2.00
73825;PMS5003;64145;55.060;73.168;2023-04-03T03:17:32;4.00;3.00;1.00
73825;PMS5003;64145;55.060;73.168;2023-04-03T03:19:58;4.00;4.00;0.00
73825;PMS5003;64145;55.060;73.168;2023-04-03T03:22:24;2.00;2.00;0.00
73825;PMS5003;64145;55.060;73.168;2023-04-03T03:24:49;3.00;3.00;0.00
73825;PMS5003;64145;55.060;73.168;2023-04-03T03:27:15;3.00;3.00;1.00
73825;PMS5003;64145;55.060;73.168;2023-04-03T03:29:41;4.00;3.00;0.00
73825;PMS5003;64145;55.060;73.168;2023-04-03T03:32:25;3.00;2.00;0.00
73825;PMS5003;64145;55.060;73.168;2023-04-03T03:34:51;3.00;3.00;0.00
73825;PMS5003;64145;55.060;73.168;2023-04-03T03:37:16;3.33;3.00;1.00
73825;PMS5003;64145;55.060;73.168;2023-04-03T03:39:42;3.00;3.00;1.00
73825;PMS5003;64145;55.060;73.168;2023-04-03T03:42:07;4.00;3.00;2.00
73825;PMS5003;64145;55.060;73.168;2023-04-03T03:47:17;3.00;3.00;0.00
73825;PMS5003;64145;55.060;73.168;2023-04-03T03:49:43;5.00;5.00;0.33
73825;PMS5003;64145;55.060;73.168;2023-04-03T03:52:09;6.00;6.00;2.00
73825;PMS5003;64145;55.060;73.168;2023-04-03T03:54:36;4.75;4.00;1.00
73825;PMS5003;64145;55.060;73.168;2023-04-03T03:57:19;3.00;3.00;1.00
73825;PMS5003;64145;55.060;73.168;2023-04-03T03:59:50;4.00;3.00;1.00
73825;PMS5003;64145;55.060;73.168;2023-04-03T04:02:16;3.00;2.00;1.00
73825;PMS5003;64145;55.060;73.168;2023-04-03T04:04:42;3.00;3.00;0.00
73825;PMS5003;64145;55.060;73.168;2023-04-03T04:09:58;2.50;1.75;0.00
73825;PMS5003;64145;55.060;73.168;2023-04-03T04:15:18;2.00;2.00;0.00
73825;PMS5003;64145;55.060;73.168;2023-04-03T04:17:44;0.00;0.00;0.00
73825;PMS5003;64145;55.060;73.168;2023-04-03T04:20:10;2.00;1.00;0.00
73825;PMS5003;64145;55.060;73.168;2023-04-03T04:22:36;2.50;2.25;0.00
73825;PMS5003;64145;55.060;73.168;2023-04-03T04:25:03;3.00;2.50;0.00
73825;PMS5003;64145;55.060;73.168;2023-04-03T04:27:28;3.00;3.00;0.00
73825;PMS5003;64145;55.060;73.168;2023-04-03T04:32:38;3.00;2.25;0.00
73825;PMS5003;64145;55.060;73.168;2023-04-03T04:35:03;4.00;4.00;0.00
73825;PMS5003;64145;55.060;73.168;2023-04-03T04:37:34;4.50;4.00;0.25
73825;PMS5003;64145;55.060;73.168;2023-04-03T04:40:00;4.00;4.00;1.00
73825;PMS5003;64145;55.060;73.168;2023-04-03T04:42:25;1.00;1.00;0.00
73825;PMS5003;64145;55.060;73.168;2023-04-03T04:44:56;3.00;3.00;0.00
73825;PMS5003;64145;55.060;73.168;2023-04-03T04:47:21;2.00;2.00;0.00
73825;PMS5003;64145;55.060;73.168;2023-04-03T04:52:36;3.00;3.00;0.00
73825;PMS5003;64145;55.060;73.168;2023-04-03T04:55:15;2.00;2.00;0.00
73825;PMS5003;64145;55.060;73.168;2023-04-03T04:57:41;3.00;2.50;0.00
73825;PMS5003;64145;55.060;73.168;2023-04-03T05:03:00;1.00;1.00;0.00
73825;PMS5003;64145;55.060;73.168;2023-04-03T05:05:34;1.50;1.50;0.00
73825;PMS5003;64145;55.060;73.168;2023-04-03T05:08:00;4.00;4.00;0.00
73825;PMS5003;64145;55.060;73.168;2023-04-03T05:10:26;3.00;2.00;0.00
73825;PMS5003;64145;55.060;73.168;2023-04-03T05:12:57;3.00;2.00;0.00
73825;PMS5003;64145;55.060;73.168;2023-04-03T05:15:23;2.00;2.00;0.00
73825;PMS5003;64145;55.060;73.168;2023-04-03T05:17:48;1.33;1.00;0.00
73825;PMS5003;64145;55.060;73.168;2023-04-03T05:20:14;2.33;2.00;0.00
73825;PMS5003;64145;55.060;73.168;2023-04-03T05:22:39;3.33;2.00;0.67
73825;PMS5003;64145;55.060;73.168;2023-04-03T05:25:05;3.00;3.00;0.00
73825;PMS5003;64145;55.060;73.168;2023-04-03T05:27:31;2.00;2.00;0.00
73825;PMS5003;64145;55.060;73.168;2023-04-03T05:29:57;2.25;2.00;0.00
73825;PMS5003;64145;55.060;73.168;2023-04-03T05:32:23;3.00;2.00;0.00
73825;PMS5003;64145;55.060;73.168;2023-04-03T05:34:49;2.50;2.25;0.00
73825;PMS5003;64145;55.060;73.168;2023-04-03T05:37:14;2.00;1.00;0.00
73825;PMS5003;64145;55.060;73.168;2023-04-03T05:39:49;3.25;3.00;0.00
73825;PMS5003;64145;55.060;73.168;2023-04-03T05:42:15;2.33;2.33;0.00
73825;PMS5003;64145;55.060;73.168;2023-04-03T05:44:41;3.00;3.00;0.00
73825;PMS5003;64145;55.060;73.168;2023-04-03T05:47:06;3.25;3.00;0.00
73825;PMS5003;64145;55.060;73.168;2023-04-03T05:49:32;3.67;2.67;0.00
73825;PMS5003;64145;55.060;73.168;2023-04-03T05:51:58;3.00;3.00;0.00
73825;PMS5003;64145;55.060;73.168;2023-04-03T05:54:24;3.00;3.00;0.00
73825;PMS5003;64145;55.060;73.168;2023-04-03T05:59:41;5.25;4.00;1.00
73825;PMS5003;64145;55.060;73.168;2023-04-03T06:02:09;3.00;3.00;1.00
73825;PMS5003;64145;55.060;73.168;2023-04-03T06:04:53;4.00;3.00;1.00
73825;PMS5003;64145;55.060;73.168;2023-04-03T06:07:19;1.33;1.33;0.00
73825;PMS5003;64145;55.060;73.168;2023-04-03T06:09:47;1.25;1.25;0.00
73825;PMS5003;64145;55.060;73.168;2023-04-03T06:12:13;3.00;2.50;0.00
73825;PMS5003;64145;55.060;73.168;2023-04-03T06:14:39;4.00;3.33;0.00
73825;PMS5003;64145;55.060;73.168;2023-04-03T06:17:04;4.00;4.00;2.00
73825;PMS5003;64145;55.060;73.168;2023-04-03T06:19:31;4.00;4.00;2.00
73825;PMS5003;64145;55.060;73.168;2023-04-03T06:21:56;4.00;4.00;2.00
73825;PMS5003;64145;55.060;73.168;2023-04-03T06:24:22;5.00;5.00;2.00
73825;PMS5003;64145;55.060;73.168;2023-04-03T06:27:02;9.00;6.75;2.00
73825;PMS5003;64145;55.060;73.168;2023-04-03T06:29:28;8.67;6.00;4.00
73825;PMS5003;64145;55.060;73.168;2023-04-03T06:31:53;6.00;5.00;2.00
73825;PMS5003;64145;55.060;73.168;2023-04-03T06:34:19;6.00;4.33;3.00
73825;PMS5003;64145;55.060;73.168;2023-04-03T06:37:03;5.25;5.25;3.00
73825;PMS5003;64145;55.060;73.168;2023-04-03T06:39:28;4.33;4.33;2.00
73825;PMS5003;64145;55.060;73.168;2023-04-03T06:41:54;6.00;4.00;1.00
73825;PMS5003;64145;55.060;73.168;2023-04-03T06:44:25;5.50;5.50;2.75
73825;PMS5003;64145;55.060;73.168;2023-04-03T06:47:01;5.00;5.00;3.00
73825;PMS5003;64145;55.060;73.168;2023-04-03T06:49:27;4.00;4.00;2.00
73825;PMS5003;64145;55.060;73.168;2023-04-03T06:51:54;5.00;4.00;2.00
73825;PMS5003;64145;55.060;73.168;2023-04-03T06:54:29;4.00;4.00;1.00
73825;PMS5003;64145;55.060;73.168;2023-04-03T06:56:55;3.00;3.00;1.00
73825;PMS5003;64145;55.060;73.168;2023-04-03T06:59:20;5.00;5.00;1.00
73825;PMS5003;64145;55.060;73.168;2023-04-03T07:01:46;5.33;5.33;3.00
73825;PMS5003;64145;55.060;73.168;2023-04-03T07:04:12;4.00;4.00;2.00
73825;PMS5003;64145;55.060;73.168;2023-04-03T07:06:38;4.00;4.00;1.00
73825;PMS5003;64145;55.060;73.168;2023-04-03T07:09:03;2.00;2.00;1.00
73825;PMS5003;64145;55.060;73.168;2023-04-03T07:11:29;2.33;1.00;0.00
73825;PMS5003;64145;55.060;73.168;2023-04-03T07:13:54;3.00;2.33;0.00
73825;PMS5003;64145;55.060;73.168;2023-04-03T07:16:20;3.00;3.00;0.00
73825;PMS5003;64145;55.060;73.168;2023-04-03T07:18:46;4.00;3.00;0.00
73825;PMS5003;64145;55.060;73.168;2023-04-03T07:21:11;2.75;2.75;1.00
73825;PMS5003;64145;55.060;73.168;2023-04-03T07:23:37;2.00;2.00;2.00
73825;PMS5003;64145;55.060;73.168;2023-04-03T07:26:13;1.00;1.00;1.00
73825;PMS5003;64145;55.060;73.168;2023-04-03T07:28:39;3.00;2.00;1.00
73825;PMS5003;64145;55.060;73.168;2023-04-03T07:31:06;3.00;3.00;0.00
73825;PMS5003;64145;55.060;73.168;2023-04-03T07:33:47;3.75;2.75;0.00
73825;PMS5003;64145;55.060;73.168;2023-04-03T07:36:17;1.00;1.00;0.00
73825;PMS5003;64145;55.060;73.168;2023-04-03T07:38:43;2.50;2.50;0.00
73825;PMS5003;64145;55.060;73.168;2023-04-03T07:41:14;1.00;1.00;0.00
73825;PMS5003;64145;55.060;73.168;2023-04-03T07:43:40;4.00;2.00;0.00
73825;PMS5003;64145;55.060;73.168;2023-04-03T07:46:07;1.00;0.00;0.00
73825;PMS5003;64145;55.060;73.168;2023-04-03T07:48:33;2.00;1.00;0.00
73825;PMS5003;64145;55.060;73.168;2023-04-03T07:51:00;2.00;2.00;0.00
73825;PMS5003;64145;55.060;73.168;2023-04-03T07:53:27;1.50;1.00;0.00
73825;PMS5003;64145;55.060;73.168;2023-04-03T07:55:52;1.00;0.00;0.00
73825;PMS5003;64145;55.060;73.168;2023-04-03T07:58:20;2.00;0.00;0.00
73825;PMS5003;64145;55.060;73.168;2023-04-03T08:00:46;2.00;1.00;0.00
73825;PMS5003;64145;55.060;73.168;2023-04-03T08:03:12;2.75;1.00;0.00
73825;PMS5003;64145;55.060;73.168;2023-04-03T08:05:42;3.00;2.00;0.00
73825;PMS5003;64145;55.060;73.168;2023-04-03T08:08:08;3.00;3.00;0.00
73825;PMS5003;64145;55.060;73.168;2023-04-03T08:10:35;1.00;1.00;0.00
73825;PMS5003;64145;55.060;73.168;2023-04-03T08:13:00;2.00;2.00;0.00
73825;PMS5003;64145;55.060;73.168;2023-04-03T08:15:26;1.33;1.00;0.00
73825;PMS5003;64145;55.060;73.168;2023-04-03T08:17:52;2.00;1.00;0.00
73825;PMS5003;64145;55.060;73.168;2023-04-03T08:20:27;3.00;3.00;0.00
73825;PMS5003;64145;55.060;73.168;2023-04-03T08:23:11;1.75;1.75;0.00
73825;PMS5003;64145;55.060;73.168;2023-04-03T08:25:38;1.33;1.00;0.00
73825;PMS5003;64145;55.060;73.168;2023-04-03T08:28:03;3.00;3.00;0.00
73825;PMS5003;64145;55.060;73.168;2023-04-03T08:30:34;2.00;2.00;0.00
73825;PMS5003;64145;55.060;73.168;2023-04-03T08:33:00;2.00;0.00;0.00
73825;PMS5003;64145;55.060;73.168;2023-04-03T08:35:26;1.25;1.25;0.00
73825;PMS5003;64145;55.060;73.168;2023-04-03T08:37:52;0.00;0.00;0.00
73825;PMS5003;64145;55.060;73.168;2023-04-03T08:40:22;1.00;1.00;0.00
73825;PMS5003;64145;55.060;73.168;2023-04-03T08:42:54;2.00;1.00;0.00
73825;PMS5003;64145;55.060;73.168;2023-04-03T08:50:31;3.50;2.00;0.00
73825;PMS5003;64145;55.060;73.168;2023-04-03T08:53:05;3.00;1.75;0.00
73825;PMS5003;64145;55.060;73.168;2023-04-03T08:58:17;2.00;1.00;0.00
73825;PMS5003;64145;55.060;73.168;2023-04-03T09:03:16;1.75;0.00;0.00
73825;PMS5003;64145;55.060;73.168;2023-04-03T09:06:11;3.00;2.00;0.00
73825;PMS5003;64145;55.060;73.168;2023-04-03T09:14:15;2.75;1.75;0.00
73825;PMS5003;64145;55.060;73.168;2023-04-03T09:16:53;9.25;9.25;5.50
73825;PMS5003;64145;55.060;73.168;2023-04-03T09:20:02;5.25;5.25;3.00
73825;PMS5003;64145;55.060;73.168;2023-04-03T09:22:27;2.50;2.00;0.50
73825;PMS5003;64145;55.060;73.168;2023-04-03T09:27:47;1.00;1.00;0.00
73825;PMS5003;64145;55.060;73.168;2023-04-03T09:30:20;1.00;1.00;0.00
73825;PMS5003;64145;55.060;73.168;2023-04-03T09:32:48;1.00;1.00;0.00
73825;PMS5003;64145;55.060;73.168;2023-04-03T09:37:45;0.00;0.00;0.00
73825;PMS5003;64145;55.060;73.168;2023-04-03T09:45:56;0.00;0.00;0.00
73825;PMS5003;64145;55.060;73.168;2023-04-03T09:48:47;0.00;0.00;0.00
73825;PMS5003;64145;55.060;73.168;2023-04-03T09:51:15;0.50;0.00;0.00
73825;PMS5003;64145;55.060;73.168;2023-04-03T09:56:26;0.00;0.00;0.00
73825;PMS5003;64145;55.060;73.168;2023-04-03T10:01:34;0.00;0.00;0.00
73825;PMS5003;64145;55.060;73.168;2023-04-03T10:04:04;0.00;0.00;0.00
73825;PMS5003;64145;55.060;73.168;2023-04-03T10:06:31;0.00;0.00;0.00
73825;PMS5003;64145;55.060;73.168;2023-04-03T10:09:01;0.00;0.00;0.00
73825;PMS5003;64145;55.060;73.168;2023-04-03T10:11:29;0.00;0.00;0.00
73825;PMS5003;64145;55.060;73.168;2023-04-03T10:13:59;0.00;0.00;0.00
73825;PMS5003;64145;55.060;73.168;2023-04-03T10:16:48;0.50;0.00;0.00
73825;PMS5003;64145;55.060;73.168;2023-04-03T10:21:59;1.00;0.00;0.00
73825;PMS5003;64145;55.060;73.168;2023-04-03T10:24:47;1.00;0.00;0.00
73825;PMS5003;64145;55.060;73.168;2023-04-03T10:27:17;0.00;0.00;0.00
73825;PMS5003;64145;55.060;73.168;2023-04-03T10:34:41;0.75;0.75;0.00
73825;PMS5003;64145;55.060;73.168;2023-04-03T10:39:50;0.00;0.00;0.00
73825;PMS5003;64145;55.060;73.168;2023-04-03T10:45:30;1.00;0.00;0.00
73825;PMS5003;64145;55.060;73.168;2023-04-03T10:48:10;0.00;0.00;0.00
73825;PMS5003;64145;55.060;73.168;2023-04-03T10:55:56;0.00;0.00;0.00
73825;PMS5003;64145;55.060;73.168;2023-04-03T10:58:25;0.00;0.00;0.00
73825;PMS5003;64145;55.060;73.168;2023-04-03T11:00:52;0.00;0.00;0.00
73825;PMS5003;64145;55.060;73.168;2023-04-03T11:03:33;0.00;0.00;0.00
73825;PMS5003;64145;55.060;73.168;2023-04-03T11:11:49;0.00;0.00;0.00
73825;PMS5003;64145;55.060;73.168;2023-04-03T11:14:26;1.50;0.00;0.00
73825;PMS5003;64145;55.060;73.168;2023-04-03T11:17:06;0.00;0.00;0.00
73825;PMS5003;64145;55.060;73.168;2023-04-03T11:19:44;0.00;0.00;0.00
73825;PMS5003;64145;55.060;73.168;2023-04-03T11:22:22;0.00;0.00;0.00
73825;PMS5003;64145;55.060;73.168;2023-04-03T11:27:24;1.00;0.00;0.00
73825;PMS5003;64145;55.060;73.168;2023-04-03T11:29:51;0.00;0.00;0.00
73825;PMS5003;64145;55.060;73.168;2023-04-03T11:32:37;0.00;0.00;0.00
73825;PMS5003;64145;55.060;73.168;2023-04-03T11:35:14;0.00;0.00;0.00
73825;PMS5003;64145;55.060;73.168;2023-04-03T11:37:41;0.00;0.00;0.00
73825;PMS5003;64145;55.060;73.168;2023-04-03T11:42:46;0.00;0.00;0.00
73825;PMS5003;64145;55.060;73.168;2023-04-03T11:47:57;1.00;0.00;0.00
73825;PMS5003;64145;55.060;73.168;2023-04-03T11:50:43;1.00;1.00;0.00
73825;PMS5003;64145;55.060;73.168;2023-04-03T11:55:44;0.00;0.00;0.00
73825;PMS5003;64145;55.060;73.168;2023-04-03T11:58:30;0.75;0.25;0.00
73825;PMS5003;64145;55.060;73.168;2023-04-03T12:00:57;0.25;0.00;0.00
73825;PMS5003;64145;55.060;73.168;2023-04-03T12:08:50;0.00;0.00;0.00
73825;PMS5003;64145;55.060;73.168;2023-04-03T12:11:23;0.00;0.00;0.00
73825;PMS5003;64145;55.060;73.168;2023-04-03T12:40:23;48.25;39.50;23.50
73825;PMS5003;64145;55.060;73.168;2023-04-03T12:45:43;37.50;30.75;17.25
73825;PMS5003;64145;55.060;73.168;2023-04-03T12:48:17;33.00;29.00;16.50
73825;PMS5003;64145;55.060;73.168;2023-04-03T12:50:43;26.00;21.75;11.00
73825;PMS5003;64145;55.060;73.168;2023-04-03T12:53:39;19.00;16.00;5.00
73825;PMS5003;64145;55.060;73.168;2023-04-03T12:56:24;37.67;30.67;15.67
73825;PMS5003;64145;55.060;73.168;2023-04-03T12:58:50;76.75;69.50;38.75
73825;PMS5003;64145;55.060;73.168;2023-04-03T13:01:17;85.75;78.25;45.50
73825;PMS5003;64145;55.060;73.168;2023-04-03T13:03:49;63.25;50.75;31.50
73825;PMS5003;64145;55.060;73.168;2023-04-03T13:06:25;39.75;32.75;20.25
73825;PMS5003;64145;55.060;73.168;2023-04-03T13:08:53;23.00;22.00;13.50
73825;PMS5003;64145;55.060;73.168;2023-04-03T13:11:33;9.00;9.00;4.25
73825;PMS5003;64145;55.060;73.168;2023-04-03T13:14:04;17.75;14.50;9.25
73825;PMS5003;64145;55.060;73.168;2023-04-03T13:16:31;57.00;43.50;27.25
73825;PMS5003;64145;55.060;73.168;2023-04-03T13:18:57;64.00;50.75;30.00
73825;PMS5003;64145;55.060;73.168;2023-04-03T13:21:24;50.25;40.00;24.00
73825;PMS5003;64145;55.060;73.168;2023-04-03T13:23:52;66.25;55.25;33.00
73825;PMS5003;64145;55.060;73.168;2023-04-03T13:26:27;82.25;75.75;45.25
73825;PMS5003;64145;55.060;73.168;2023-04-03T13:28:54;235.25;196.50;93.50
73825;PMS5003;64145;55.060;73.168;2023-04-03T13:31:33;268.50;219.50;103.50
73825;PMS5003;64145;55.060;73.168;2023-04-03T13:34:02;314.50;255.75;114.75
73825;PMS5003;64145;55.060;73.168;2023-04-03T13:36:46;311.25;253.50;116.75
73825;PMS5003;64145;55.060;73.168;2023-04-03T13:39:29;319.00;267.00;126.00
73825;PMS5003;64145;55.060;73.168;2023-04-03T13:47:53;386.00;322.25;145.50
73825;PMS5003;64145;55.060;73.168;2023-04-03T13:50:56;313.25;265.25;130.00
73825;PMS5003;64145;55.060;73.168;2023-04-03T13:53:23;283.50;243.00;124.50
73825;PMS5003;64145;55.060;73.168;2023-04-03T13:56:00;256.75;224.75;120.75
73825;PMS5003;64145;55.060;73.168;2023-04-03T13:58:35;236.25;211.25;117.75
73825;PMS5003;64145;55.060;73.168;2023-04-03T14:01:21;142.50;126.75;74.75
73825;PMS5003;64145;55.060;73.168;2023-04-03T14:03:52;69.50;61.50;38.25
73825;PMS5003;64145;55.060;73.168;2023-04-03T14:06:18;54.25;43.00;28.00
73825;PMS5003;64145;55.060;73.168;2023-04-03T14:08:44;74.67;67.67;45.67
73825;PMS5003;64145;55.060;73.168;2023-04-03T14:11:29;96.00;88.25;58.00
73825;PMS5003;64145;55.060;73.168;2023-04-03T14:14:00;80.00;74.00;48.50
73825;PMS5003;64145;55.060;73.168;2023-04-03T14:16:26;69.00;63.50;41.00
73825;PMS5003;64145;55.060;73.168;2023-04-03T14:18:52;64.00;55.75;35.25
73825;PMS5003;64145;55.060;73.168;2023-04-03T14:21:18;61.00;50.33;32.33
73825;PMS5003;64145;55.060;73.168;2023-04-03T14:23:45;63.50;52.75;34.75
73825;PMS5003;64145;55.060;73.168;2023-04-03T14:26:22;63.50;54.75;36.50
73825;PMS5003;64145;55.060;73.168;2023-04-03T14:31:47;64.25;55.75;36.50
73825;PMS5003;64145;55.060;73.168;2023-04-03T14:34:14;64.75;54.75;36.50
73825;PMS5003;64145;55.060;73.168;2023-04-03T14:36:40;66.00;57.75;38.00
73825;PMS5003;64145;55.060;73.168;2023-04-03T14:39:07;67.00;59.00;38.50
73825;PMS5003;64145;55.060;73.168;2023-04-03T14:41:34;65.00;53.50;36.00
73825;PMS5003;64145;55.060;73.168;2023-04-03T14:44:00;59.25;47.25;31.00
73825;PMS5003;64145;55.060;73.168;2023-04-03T14:46:32;54.50;43.75;29.00
73825;PMS5003;64145;55.060;73.168;2023-04-03T14:49:06;54.50;44.00;28.00
73825;PMS5003;64145;55.060;73.168;2023-04-03T14:51:56;52.25;41.00;26.00
73825;PMS5003;64145;55.060;73.168;2023-04-03T14:54:22;53.25;43.00;28.00
73825;PMS5003;64145;55.060;73.168;2023-04-03T14:56:58;57.50;46.25;29.50
73825;PMS5003;64145;55.060;73.168;2023-04-03T14:59:25;62.50;52.00;32.50
73825;PMS5003;64145;55.060;73.168;2023-04-03T15:01:50;65.33;57.67;38.00
73825;PMS5003;64145;55.060;73.168;2023-04-03T15:04:17;66.33;58.67;38.33
73825;PMS5003;64145;55.060;73.168;2023-04-03T15:06:43;73.25;68.25;44.25
73825;PMS5003;64145;55.060;73.168;2023-04-03T15:09:32;72.50;64.75;42.75
73825;PMS5003;64145;55.060;73.168;2023-04-03T15:11:59;68.00;63.25;42.00
73825;PMS5003;64145;55.060;73.168;2023-04-03T15:14:25;68.00;62.33;42.33
73825;PMS5003;64145;55.060;73.168;2023-04-03T15:16:50;100.33;87.00;53.00
73825;PMS5003;64145;55.060;73.168;2023-04-03T15:19:16;129.00;116.33;68.33
73825;PMS5003;64145;55.060;73.168;2023-04-03T15:22:00;126.25;115.50;68.25
73825;PMS5003;64145;55.060;73.168;2023-04-03T15:24:25;99.67;92.00;56.67
73825;PMS5003;64145;55.060;73.168;2023-04-03T15:26:56;82.75;75.50;48.00
73825;PMS5003;64145;55.060;73.168;2023-04-03T15:29:22;73.33;67.00;43.00
73825;PMS5003;64145;55.060;73.168;2023-04-03T15:31:49;68.00;62.00;41.00
73825;PMS5003;64145;55.060;73.168;2023-04-03T15:34:17;64.25;58.00;37.75
73825;PMS5003;64145;55.060;73.168;2023-04-03T15:36:43;64.00;55.67;37.33
73825;PMS5003;64145;55.060;73.168;2023-04-03T15:39:08;64.33;58.67;38.33
73825;PMS5003;64145;55.060;73.168;2023-04-03T15:44:18;65.50;57.75;38.75
73825;PMS5003;64145;55.060;73.168;2023-04-03T15:49:28;64.50;58.25;37.00
73825;PMS5003;64145;55.060;73.168;2023-04-03T15:51:55;65.25;59.00;37.25
73825;PMS5003;64145;55.060;73.168;2023-04-03T15:54:20;67.33;60.67;39.00
73825;PMS5003;64145;55.060;73.168;2023-04-03T15:56:51;75.25;69.25;44.50
73825;PMS5003;64145;55.060;73.168;2023-04-03T15:59:26;90.50;83.50;52.50
73825;PMS5003;64145;55.060;73.168;2023-04-03T16:02:05;91.50;83.25;54.00
73825;PMS5003;64145;55.060;73.168;2023-04-03T16:04:36;74.75;69.25;46.00
73825;PMS5003;64145;55.060;73.168;2023-04-03T16:07:02;65.00;58.00;39.00
73825;PMS5003;64145;55.060;73.168;2023-04-03T16:09:46;60.50;50.50;34.25
73825;PMS5003;64145;55.060;73.168;2023-04-03T16:12:12;60.33;50.33;33.33
73825;PMS5003;64145;55.060;73.168;2023-04-03T16:14:37;57.67;46.67;30.00
73825;PMS5003;64145;55.060;73.168;2023-04-03T16:17:13;56.50;44.50;29.00
73825;PMS5003;64145;55.060;73.168;2023-04-03T16:19:38;54.00;43.33;28.00
73825;PMS5003;64145;55.060;73.168;2023-04-03T16:22:14;54.00;43.25;29.00
73825;PMS5003;64145;55.060;73.168;2023-04-03T16:24:45;55.50;44.00;29.00
73825;PMS5003;64145;55.060;73.168;2023-04-03T16:27:11;51.00;41.00;28.00
73825;PMS5003;64145;55.060;73.168;2023-04-03T16:29:36;51.00;40.33;27.00
73825;PMS5003;64145;55.060;73.168;2023-04-03T16:32:02;50.33;40.33;27.33
73825;PMS5003;64145;55.060;73.168;2023-04-03T16:34:28;49.00;39.50;26.00
73825;PMS5003;64145;55.060;73.168;2023-04-03T16:36:56;51.25;40.50;27.00
73825;PMS5003;64145;55.060;73.168;2023-04-03T16:39:21;50.33;40.00;26.00
73825;PMS5003;64145;55.060;73.168;2023-04-03T16:44:31;50.00;39.75;26.00